Zim Hamburg — D5EY9 — position and weather

sailwx.info

Track history (hours):
 
Tides and Currents Weather Stations Pressure Air Temp Water Temp Dewpoint Dewpoint Depression Visibility Wind Speed Wind Dir Waves Ship Positions

Zim Hamburg

Last reported at 2018-Jun-16 08:27 UTC. Time now 2018-Jun-24 07:21 UTC.
Position N 31°07' E 122°16'.

Length 293 m; draft 9.5 m.

Type: Ship (hazmat cat A). MMSI: 635961393.

Date/timePositionNaut miles runAvg speedWind from/ knotsBaromVisibWave heightAir tempDewpointWater temp
2018-Jun-16 08:27N 31°07' E 122°16'1214.4
2018-Jun-16 07:39N 31°14' E 122°05'214.1
2018-Jun-16 07:30N 31°14' E 122°03'714.5
2018-Jun-16 07:00N 31°16' E 121°54'713.6
2018-Jun-16 06:30N 31°18' E 121°47'2 0.1
2018-Jun-15 03:25N 31°19' E 121°45'811.2
2018-Jun-15 02:42N 31°16' E 121°54'211.0
2018-Jun-15 02:30N 31°15' E 121°56'611.7
2018-Jun-15 02:00N 31°14' E 122°03'510.3
2018-Jun-15 01:29N 31°12' E 122°08'510.1
2018-Jun-15 01:00N 31°09' E 122°13'611.3
2018-Jun-15 00:28N 31°06' E 122°19'613.5
2018-Jun-14 23:59N 31°07' E 122°27'4 7.6
2018-Jun-14 23:27N 31°09' E 122°31'6 9.1
2018-Jun-14 22:47N 31°15' E 122°31'613.4
2018-Jun-14 22:19N 31°20' E 122°35'29614.3
2018-Jun-14 01:35N 35°58' E 120°33'1013.3
2018-Jun-14 00:50N 36°01' E 120°21'5 9.7
2018-Jun-14 00:20N 36°02' E 120°16'2 4.3
2018-Jun-13 23:49N 36°01' E 120°13'0 0.0
2018-Jun-13 11:01N 36°01' E 120°14'0 0.0
2018-Jun-13 10:43N 36°01' E 120°14'0 0.0
2018-Jun-13 09:07N 36°01' E 120°14'0 0.0
2018-Jun-13 08:09N 36°01' E 120°14'0 0.0
2018-Jun-13 07:52N 36°01' E 120°14'0 0.0
2018-Jun-13 07:19N 36°01' E 120°14'0 0.0
2018-Jun-13 06:46N 36°01' E 120°14'0 0.0
2018-Jun-13 06:29N 36°01' E 120°14'0 0.0
2018-Jun-13 05:31N 36°01' E 120°14'0 0.0
2018-Jun-13 05:13N 36°01' E 120°14'0 0.0
2018-Jun-13 04:55N 36°01' E 120°14'0 0.0
2018-Jun-13 04:10N 36°01' E 120°14'0 0.0
2018-Jun-13 03:43N 36°01' E 120°14'0 0.0
2018-Jun-13 02:40N 36°01' E 120°14'0 0.0
2018-Jun-13 02:19N 36°01' E 120°14'0 0.0
2018-Jun-13 01:40N 36°01' E 120°14'0 0.0
2018-Jun-13 01:16N 36°01' E 120°14'0 0.0
2018-Jun-13 00:55N 36°01' E 120°14'0 0.0
2018-Jun-13 00:22N 36°01' E 120°14'0 0.0
2018-Jun-12 23:49N 36°01' E 120°14'0 0.0
2018-Jun-12 23:28N 36°01' E 120°14'0 0.0
2018-Jun-12 22:53N 36°01' E 120°14'0 0.0
2018-Jun-12 22:17N 36°01' E 120°14'8 4.6
2018-Jun-12 20:27N 36°01' E 120°24'149 3.7
2018-Jun-11 04:30N 37°44' E 122°39'712.8
2018-Jun-11 03:59N 37°47' E 122°32'612.8
2018-Jun-11 03:30N 37°50' E 122°25'712.7
2018-Jun-11 02:58N 37°54' E 122°18'612.5
2018-Jun-11 02:27N 37°56' E 122°10'612.4
2018-Jun-11 02:00N 37°59' E 122°04'612.1
2018-Jun-11 01:30N 38°01' E 121°57'612.2
2018-Jun-11 01:00N 38°04' E 121°50'712.4
2018-Jun-11 00:28N 38°08' E 121°43'612.4
2018-Jun-10 23:58N 38°12' E 121°37'612.7
2018-Jun-10 23:29N 38°15' E 121°30'612.7
2018-Jun-10 23:00N 38°18' E 121°24'712.5
2018-Jun-10 22:25N 38°22' E 121°16'3210.4
2018-Jun-10 19:21N 38°34' E 120°38'613.9
2018-Jun-10 18:54N 38°35' E 120°30'613.9
2018-Jun-10 18:26N 38°36' E 120°22'613.5
2018-Jun-10 17:58N 38°37' E 120°14'2412.9
2018-Jun-10 16:07N 38°40' E 119°44'312.4
2018-Jun-10 15:55N 38°41' E 119°40'6 0.2
2018-Jun-09 02:19N 38°45' E 119°35'411.1
2018-Jun-09 02:00N 38°45' E 119°39'611.2
2018-Jun-09 01:30N 38°44' E 119°47'611.2
2018-Jun-09 01:00N 38°43' E 119°54'611.5
2018-Jun-09 00:30N 38°42' E 120°01'611.6
2018-Jun-09 00:00N 38°41' E 120°08'611.5
2018-Jun-08 23:30N 38°41' E 120°15'611.3
2018-Jun-08 23:00N 38°40' E 120°23'611.8
2018-Jun-08 22:28N 38°39' E 120°31'612.0
2018-Jun-08 22:00N 38°38' E 120°38'611.2
2018-Jun-08 21:30N 38°37' E 120°45'5 9.8
2018-Jun-08 21:00N 38°36' E 120°51'5 9.9
2018-Jun-08 20:30N 38°35' E 120°57'510.1
2018-Jun-08 20:00N 38°32' E 121°03'611.9
2018-Jun-08 19:30N 38°29' E 121°09'611.8
2018-Jun-08 19:00N 38°27' E 121°16'611.5
2018-Jun-08 18:30N 38°24' E 121°22'611.4
2018-Jun-08 18:00N 38°21' E 121°29'611.7
2018-Jun-08 17:30N 38°19' E 121°35'611.8
2018-Jun-08 17:00N 38°16' E 121°42'611.8
2018-Jun-08 16:30N 38°13' E 121°49'611.9
2018-Jun-08 16:00N 38°11' E 121°56'611.9
2018-Jun-08 15:30N 38°08' E 122°02'612.2
2018-Jun-08 15:00N 38°05' E 122°09'612.2
2018-Jun-08 14:30N 38°02' E 122°16'612.0
2018-Jun-08 14:00N 37°59' E 122°22'612.0
2018-Jun-08 13:30N 37°55' E 122°28'611.8
2018-Jun-08 13:00N 37°52' E 122°34'911.9
2018-Jun-08 12:17N 37°47' E 122°44'311.8
2018-Jun-08 12:00N 37°46' E 122°47'611.7
2018-Jun-08 11:30N 37°43' E 122°54'611.6
2018-Jun-08 11:00N 37°40' E 122°60'8 9.9
2018-Jun-08 10:09N 37°32' E 123°03'211.2
2018-Jun-08 10:00N 37°30' E 123°03'611.2
2018-Jun-08 09:29N 37°24' E 123°03'611.4
2018-Jun-08 09:00N 37°19' E 123°03'611.6
2018-Jun-08 08:30N 37°13' E 123°03'611.6
2018-Jun-08 07:59N 37°07' E 123°04'33013.1
2018-Jun-07 06:45N 31°38' E 123°19'413.6
2018-Jun-07 06:27N 31°34' E 123°19'  
Track history (hours):
 
Tides and Currents Weather Stations Pressure Air Temp Water Temp Dewpoint Dewpoint Depression Visibility Wind Speed Wind Dir Waves Ship Positions

Zim Hamburg

Last reported at 2018-Jun-16 08:27 UTC. Time now 2018-Jun-24 07:21 UTC.
Position N 31°07' E 122°16'.

Length 293 m; draft 9.5 m.

Type: Ship (hazmat cat A). MMSI: 635961393.

Date/timePositionNaut miles runAvg speedWind from/ knotsBaromVisibWave heightAir tempDewpointWater temp
2018-Jun-16 08:27N 31°07' E 122°16'1214.4
2018-Jun-16 07:39N 31°14' E 122°05'214.1
2018-Jun-16 07:30N 31°14' E 122°03'714.5
2018-Jun-16 07:00N 31°16' E 121°54'713.6
2018-Jun-16 06:30N 31°18' E 121°47'2 0.1
2018-Jun-15 03:25N 31°19' E 121°45'811.2
2018-Jun-15 02:42N 31°16' E 121°54'211.0
2018-Jun-15 02:30N 31°15' E 121°56'611.7
2018-Jun-15 02:00N 31°14' E 122°03'510.3
2018-Jun-15 01:29N 31°12' E 122°08'510.1
2018-Jun-15 01:00N 31°09' E 122°13'611.3
2018-Jun-15 00:28N 31°06' E 122°19'613.5
2018-Jun-14 23:59N 31°07' E 122°27'4 7.6
2018-Jun-14 23:27N 31°09' E 122°31'6 9.1
2018-Jun-14 22:47N 31°15' E 122°31'613.4
2018-Jun-14 22:19N 31°20' E 122°35'29614.3
2018-Jun-14 01:35N 35°58' E 120°33'1013.3
2018-Jun-14 00:50N 36°01' E 120°21'5 9.7
2018-Jun-14 00:20N 36°02' E 120°16'2 4.3
2018-Jun-13 23:49N 36°01' E 120°13'0 0.0
2018-Jun-13 11:01N 36°01' E 120°14'0 0.0
2018-Jun-13 10:43N 36°01' E 120°14'0 0.0
2018-Jun-13 09:07N 36°01' E 120°14'0 0.0
2018-Jun-13 08:09N 36°01' E 120°14'0 0.0
2018-Jun-13 07:52N 36°01' E 120°14'0 0.0
2018-Jun-13 07:19N 36°01' E 120°14'0 0.0
2018-Jun-13 06:46N 36°01' E 120°14'0 0.0
2018-Jun-13 06:29N 36°01' E 120°14'0 0.0
2018-Jun-13 05:31N 36°01' E 120°14'0 0.0
2018-Jun-13 05:13N 36°01' E 120°14'0 0.0
2018-Jun-13 04:55N 36°01' E 120°14'0 0.0
2018-Jun-13 04:10N 36°01' E 120°14'0 0.0
2018-Jun-13 03:43N 36°01' E 120°14'0 0.0
2018-Jun-13 02:40N 36°01' E 120°14'0 0.0
2018-Jun-13 02:19N 36°01' E 120°14'0 0.0
2018-Jun-13 01:40N 36°01' E 120°14'0 0.0
2018-Jun-13 01:16N 36°01' E 120°14'0 0.0
2018-Jun-13 00:55N 36°01' E 120°14'0 0.0
2018-Jun-13 00:22N 36°01' E 120°14'0 0.0
2018-Jun-12 23:49N 36°01' E 120°14'0 0.0
2018-Jun-12 23:28N 36°01' E 120°14'0 0.0
2018-Jun-12 22:53N 36°01' E 120°14'0 0.0
2018-Jun-12 22:17N 36°01' E 120°14'8 4.6
2018-Jun-12 20:27N 36°01' E 120°24'149 3.7
2018-Jun-11 04:30N 37°44' E 122°39'712.8
2018-Jun-11 03:59N 37°47' E 122°32'612.8
2018-Jun-11 03:30N 37°50' E 122°25'712.7
2018-Jun-11 02:58N 37°54' E 122°18'612.5
2018-Jun-11 02:27N 37°56' E 122°10'612.4
2018-Jun-11 02:00N 37°59' E 122°04'612.1
2018-Jun-11 01:30N 38°01' E 121°57'612.2
2018-Jun-11 01:00N 38°04' E 121°50'712.4
2018-Jun-11 00:28N 38°08' E 121°43'612.4
2018-Jun-10 23:58N 38°12' E 121°37'612.7
2018-Jun-10 23:29N 38°15' E 121°30'612.7
2018-Jun-10 23:00N 38°18' E 121°24'712.5
2018-Jun-10 22:25N 38°22' E 121°16'3210.4
2018-Jun-10 19:21N 38°34' E 120°38'613.9
2018-Jun-10 18:54N 38°35' E 120°30'613.9
2018-Jun-10 18:26N 38°36' E 120°22'613.5
2018-Jun-10 17:58N 38°37' E 120°14'2412.9
2018-Jun-10 16:07N 38°40' E 119°44'312.4
2018-Jun-10 15:55N 38°41' E 119°40'6 0.2
2018-Jun-09 02:19N 38°45' E 119°35'411.1
2018-Jun-09 02:00N 38°45' E 119°39'611.2
2018-Jun-09 01:30N 38°44' E 119°47'611.2
2018-Jun-09 01:00N 38°43' E 119°54'611.5
2018-Jun-09 00:30N 38°42' E 120°01'611.6
2018-Jun-09 00:00N 38°41' E 120°08'611.5
2018-Jun-08 23:30N 38°41' E 120°15'611.3
2018-Jun-08 23:00N 38°40' E 120°23'611.8
2018-Jun-08 22:28N 38°39' E 120°31'612.0
2018-Jun-08 22:00N 38°38' E 120°38'611.2
2018-Jun-08 21:30N 38°37' E 120°45'5 9.8
2018-Jun-08 21:00N 38°36' E 120°51'5 9.9
2018-Jun-08 20:30N 38°35' E 120°57'510.1
2018-Jun-08 20:00N 38°32' E 121°03'611.9
2018-Jun-08 19:30N 38°29' E 121°09'611.8
2018-Jun-08 19:00N 38°27' E 121°16'611.5
2018-Jun-08 18:30N 38°24' E 121°22'611.4
2018-Jun-08 18:00N 38°21' E 121°29'611.7
2018-Jun-08 17:30N 38°19' E 121°35'611.8
2018-Jun-08 17:00N 38°16' E 121°42'611.8
2018-Jun-08 16:30N 38°13' E 121°49'611.9
2018-Jun-08 16:00N 38°11' E 121°56'611.9
2018-Jun-08 15:30N 38°08' E 122°02'612.2
2018-Jun-08 15:00N 38°05' E 122°09'612.2
2018-Jun-08 14:30N 38°02' E 122°16'612.0
2018-Jun-08 14:00N 37°59' E 122°22'612.0
2018-Jun-08 13:30N 37°55' E 122°28'611.8
2018-Jun-08 13:00N 37°52' E 122°34'911.9
2018-Jun-08 12:17N 37°47' E 122°44'311.8
2018-Jun-08 12:00N 37°46' E 122°47'611.7
2018-Jun-08 11:30N 37°43' E 122°54'611.6
2018-Jun-08 11:00N 37°40' E 122°60'8 9.9
2018-Jun-08 10:09N 37°32' E 123°03'211.2
2018-Jun-08 10:00N 37°30' E 123°03'611.2
2018-Jun-08 09:29N 37°24' E 123°03'611.4
2018-Jun-08 09:00N 37°19' E 123°03'611.6
2018-Jun-08 08:30N 37°13' E 123°03'611.6
2018-Jun-08 07:59N 37°07' E 123°04'33013.1
2018-Jun-07 06:45N 31°38' E 123°19'413.6
2018-Jun-07 06:27N 31°34' E 123°19'  

Dump ship's entire track history